createdAt,value
2023-03-24T00:01:58.655Z,10.29
2023-03-24T00:04:25.443Z,10.25
2023-03-24T00:06:54.035Z,10.23
2023-03-24T00:09:20.716Z,10.14
2023-03-24T00:11:48.628Z,10.07
2023-03-24T00:14:18.617Z,10.11
2023-03-24T00:16:46.741Z,10.22
2023-03-24T00:19:17.015Z,9.99
2023-03-24T00:21:44.461Z,10.01
2023-03-24T00:24:12.688Z,9.92
2023-03-24T00:26:41.096Z,9.88
2023-03-24T00:29:09.728Z,9.87
2023-03-24T00:31:40.004Z,9.69
2023-03-24T00:34:08.781Z,10.01
2023-03-24T00:36:37.312Z,10.02
2023-03-24T00:39:06.128Z,9.97
2023-03-24T00:41:33.839Z,9.95
2023-03-24T00:44:03.800Z,9.92
2023-03-24T00:46:30.865Z,9.95
2023-03-24T00:49:05.665Z,10.05
2023-03-24T00:51:35.815Z,10.15
2023-03-24T00:54:02.917Z,10.06
2023-03-24T00:56:35.843Z,9.99
2023-03-24T00:59:03.437Z,10.09
2023-03-24T01:01:37.717Z,10.02
2023-03-24T01:04:06.208Z,10.27
2023-03-24T01:06:36.565Z,10.18
2023-03-24T01:09:05.544Z,10.12
2023-03-24T01:11:38.602Z,10.11
2023-03-24T01:14:06.165Z,9.91
2023-03-24T01:16:32.968Z,9.91
2023-03-24T01:19:00.549Z,9.90
2023-03-24T01:21:27.223Z,9.96
2023-03-24T01:23:54.536Z,10.11
2023-03-24T01:26:21.414Z,10.11
2023-03-24T01:28:48.443Z,9.96
2023-03-24T01:31:17.396Z,10.10
2023-03-24T01:33:44.235Z,10.04
2023-03-24T01:36:11.562Z,10.13
2023-03-24T01:38:38.608Z,10.10
2023-03-24T01:41:06.283Z,10.04
2023-03-24T01:43:37.391Z,10.02
2023-03-24T01:46:15.447Z,10.04
2023-03-24T01:48:46.625Z,10.21
2023-03-24T01:51:27.228Z,10.14
2023-03-24T01:54:01.912Z,10.09
2023-03-24T01:56:33.239Z,9.98
2023-03-24T01:59:04.420Z,9.97
2023-03-24T02:01:40.814Z,10.00
2023-03-24T02:04:39.648Z,9.95
2023-03-24T02:07:18.613Z,10.02
2023-03-24T02:09:46.170Z,10.10
2023-03-24T02:12:13.696Z,9.93
2023-03-24T02:14:41.798Z,9.90
2023-03-24T02:17:11.526Z,9.95
2023-03-24T02:20:05.596Z,10.12
2023-03-24T02:22:50.829Z,10.09
2023-03-24T02:25:57.519Z,10.00
2023-03-24T02:28:30.262Z,10.09
2023-03-24T02:31:24.903Z,10.19
2023-03-24T02:34:16.607Z,10.09
2023-03-24T02:36:49.690Z,10.02
2023-03-24T02:39:38.183Z,10.12
2023-03-24T02:42:45.328Z,10.13
2023-03-24T02:45:37.631Z,10.13
2023-03-24T02:48:21.380Z,10.13
2023-03-24T02:50:58.893Z,10.10
2023-03-24T02:53:42.455Z,10.10
2023-03-24T02:56:31.817Z,10.26
2023-03-24T02:59:11.182Z,10.25
2023-03-24T03:01:54.121Z,10.17
2023-03-24T03:04:54.929Z,10.16
2023-03-24T03:07:25.070Z,10.15
2023-03-24T03:10:08.691Z,10.28
2023-03-24T03:12:37.568Z,10.32
2023-03-24T03:15:08.537Z,10.26
2023-03-24T03:17:41.935Z,10.26
2023-03-24T03:20:18.420Z,10.17
2023-03-24T03:22:51.776Z,10.24
2023-03-24T03:25:24.581Z,10.17
2023-03-24T03:27:53.501Z,10.19
2023-03-24T03:30:42.152Z,10.24
2023-03-24T03:33:27.805Z,10.46
2023-03-24T03:36:28.541Z,10.61
2023-03-24T03:39:02.671Z,10.52
2023-03-24T03:41:31.848Z,10.65
2023-03-24T03:43:58.604Z,10.60
2023-03-24T03:46:25.891Z,10.55
2023-03-24T03:48:53.235Z,10.50
2023-03-24T03:51:19.979Z,10.67
2023-03-24T03:53:58.416Z,10.62
2023-03-24T03:56:28.220Z,10.51
2023-03-24T03:59:35.035Z,10.37
2023-03-24T04:02:27.916Z,10.33
2023-03-24T04:05:10.752Z,10.38
2023-03-24T04:07:58.204Z,10.33
2023-03-24T04:10:54.576Z,10.34
2023-03-24T04:13:24.506Z,10.34
2023-03-24T04:16:35.527Z,10.41
2023-03-24T04:19:16.688Z,10.38
2023-03-24T04:21:53.987Z,10.33
2023-03-24T04:24:40.463Z,10.29
2023-03-24T04:27:27.155Z,10.21
2023-03-24T04:30:03.317Z,10.24
2023-03-24T04:33:10.441Z,10.40
2023-03-24T04:35:44.064Z,10.44
2023-03-24T04:38:25.940Z,10.46
2023-03-24T04:41:13.648Z,10.47
2023-03-24T04:43:41.930Z,10.55
2023-03-24T04:46:11.018Z,10.55
2023-03-24T04:48:58.432Z,10.50
2023-03-24T04:51:31.627Z,10.50
2023-03-24T04:54:04.528Z,10.69
2023-03-24T04:56:47.945Z,10.78
2023-03-24T04:59:25.783Z,10.81
2023-03-24T05:01:52.731Z,10.94
2023-03-24T05:04:37.583Z,11.00
2023-03-24T05:07:17.735Z,11.26
2023-03-24T05:09:47.728Z,11.27
2023-03-24T05:12:14.850Z,11.24
2023-03-24T05:15:06.480Z,11.21
2023-03-24T05:17:34.154Z,11.19
2023-03-24T05:20:01.545Z,11.15
2023-03-24T05:22:28.178Z,11.17
2023-03-24T05:24:54.864Z,11.19
2023-03-24T05:27:21.487Z,11.10
2023-03-24T05:29:48.444Z,11.17
2023-03-24T05:32:21.461Z,11.23
2023-03-24T05:34:48.356Z,11.31
2023-03-24T05:37:17.476Z,11.14
2023-03-24T05:39:48.533Z,11.06
2023-03-24T05:42:38.111Z,11.25
2023-03-24T05:45:06.552Z,11.26
2023-03-24T05:47:33.347Z,11.16
2023-03-24T05:50:00.177Z,11.06
2023-03-24T05:52:28.918Z,11.07
2023-03-24T05:55:10.352Z,11.01
2023-03-24T05:57:38.474Z,10.93
2023-03-24T06:00:23.466Z,10.88
2023-03-24T06:03:07.703Z,10.86
2023-03-24T06:05:41.683Z,10.96
2023-03-24T06:08:09.968Z,10.79
2023-03-24T06:10:37.348Z,10.71
2023-03-24T06:13:04.651Z,10.67
2023-03-24T06:15:33.213Z,10.50
2023-03-24T06:18:24.216Z,10.42
2023-03-24T06:20:51.036Z,10.42
2023-03-24T06:23:25.984Z,10.38
2023-03-24T06:26:14.293Z,10.38
2023-03-24T06:28:54.671Z,10.37
2023-03-24T06:31:23.994Z,10.35
2023-03-24T06:33:52.369Z,10.48
2023-03-24T06:36:19.556Z,10.44
2023-03-24T06:38:46.581Z,10.46
2023-03-24T06:41:18.777Z,10.41
2023-03-24T06:43:48.315Z,10.42
2023-03-24T06:46:18.461Z,10.46
2023-03-24T06:48:47.083Z,10.40
2023-03-24T06:51:13.909Z,10.44
2023-03-24T06:53:41.482Z,10.44
2023-03-24T06:56:08.364Z,10.48
2023-03-24T06:58:40.902Z,10.57
2023-03-24T07:01:11.447Z,10.48
2023-03-24T07:03:54.701Z,10.61
2023-03-24T07:06:59.901Z,10.72
2023-03-24T07:09:33.656Z,10.91
2023-03-24T07:12:02.236Z,10.66
2023-03-24T07:14:29.025Z,10.64
2023-03-24T07:16:57.080Z,10.67
2023-03-24T07:19:42.764Z,10.39
2023-03-24T07:22:42.107Z,10.21
2023-03-24T07:25:34.797Z,10.28
2023-03-24T07:28:33.884Z,10.01
2023-03-24T07:31:04.755Z,9.91
2023-03-24T07:33:32.000Z,9.79
2023-03-24T07:35:59.508Z,9.97
2023-03-24T07:38:26.786Z,10.20
2023-03-24T07:41:00.999Z,10.10
2023-03-24T07:43:30.464Z,10.15
2023-03-24T07:46:17.129Z,10.29
2023-03-24T07:48:43.991Z,10.46
2023-03-24T07:51:11.099Z,10.42
2023-03-24T07:53:59.326Z,10.62
2023-03-24T07:56:32.333Z,10.66
2023-03-24T07:59:01.402Z,10.46
2023-03-24T08:01:38.474Z,10.26
2023-03-24T08:04:12.481Z,10.13
2023-03-24T08:06:58.653Z,10.28
2023-03-24T08:09:25.618Z,10.22
2023-03-24T08:11:52.415Z,10.19
2023-03-24T08:14:19.138Z,10.17
2023-03-24T08:16:46.441Z,10.26
2023-03-24T08:19:13.197Z,10.26
2023-03-24T08:21:39.886Z,10.17
2023-03-24T08:24:06.977Z,10.20
2023-03-24T08:26:35.496Z,10.16
2023-03-24T08:29:03.162Z,10.25
2023-03-24T08:31:33.936Z,10.26
2023-03-24T08:34:00.787Z,10.20
2023-03-24T08:36:27.644Z,10.45
2023-03-24T08:38:55.734Z,10.64
2023-03-24T08:41:34.803Z,10.72
2023-03-24T08:44:07.202Z,10.85
2023-03-24T08:46:34.764Z,10.76
2023-03-24T08:49:04.491Z,10.84
2023-03-24T08:51:31.752Z,10.78
2023-03-24T08:53:58.686Z,10.96
2023-03-24T08:56:25.988Z,10.99
2023-03-24T08:58:53.935Z,11.12
2023-03-24T09:01:21.541Z,11.03
2023-03-24T09:03:48.818Z,11.04
2023-03-24T09:06:15.987Z,10.90
2023-03-24T09:08:42.778Z,10.93
2023-03-24T09:11:16.916Z,10.92
2023-03-24T09:13:43.627Z,11.12
2023-03-24T09:16:10.742Z,11.13
2023-03-24T09:18:37.680Z,11.20
2023-03-24T09:21:05.997Z,11.31
2023-03-24T09:23:32.718Z,11.41
2023-03-24T09:26:00.204Z,11.61
2023-03-24T09:28:26.927Z,11.26
2023-03-24T09:31:01.381Z,11.60
2023-03-24T09:33:29.966Z,11.42
2023-03-24T09:36:00.086Z,11.75
2023-03-24T09:38:28.651Z,11.76
2023-03-24T09:40:58.017Z,11.85
2023-03-24T09:43:33.074Z,11.51
2023-03-24T09:46:02.090Z,11.49
2023-03-24T09:48:47.382Z,11.28
2023-03-24T09:51:25.435Z,11.42
2023-03-24T09:54:05.287Z,11.41
2023-03-24T09:56:34.062Z,11.48
2023-03-24T09:59:12.702Z,11.68
2023-03-24T10:01:39.389Z,11.88
2023-03-24T10:04:14.658Z,12.14
2023-03-24T10:06:42.530Z,11.76
2023-03-24T10:09:23.973Z,11.76
2023-03-24T10:12:21.913Z,11.76
2023-03-24T10:15:07.278Z,11.80
2023-03-24T10:17:39.974Z,11.80
2023-03-24T10:20:24.356Z,11.76
2023-03-24T10:23:08.825Z,11.69
2023-03-24T10:26:05.935Z,11.79
2023-03-24T10:28:41.553Z,12.21
2023-03-24T10:31:12.072Z,12.11
2023-03-24T10:33:42.695Z,11.77
2023-03-24T10:36:21.152Z,11.51
2023-03-24T10:38:48.137Z,11.52
2023-03-24T10:41:26.040Z,11.64
2023-03-24T10:43:54.310Z,11.76
2023-03-24T10:46:24.736Z,11.68
2023-03-24T10:49:19.848Z,11.71
2023-03-24T10:51:49.598Z,11.86
2023-03-24T10:54:27.029Z,12.29
2023-03-24T10:57:03.743Z,12.35
2023-03-24T10:59:38.470Z,12.23
2023-03-24T11:02:17.262Z,12.49
2023-03-24T11:04:55.162Z,11.96
2023-03-24T11:07:23.700Z,12.14
2023-03-24T11:10:19.097Z,12.39
2023-03-24T11:12:54.933Z,12.56
2023-03-24T11:15:30.562Z,12.70
2023-03-24T11:18:12.709Z,12.67
2023-03-24T11:20:41.565Z,12.60
2023-03-24T11:23:19.960Z,12.69
2023-03-24T11:26:23.138Z,12.83
2023-03-24T11:28:53.581Z,12.81
2023-03-24T11:31:32.933Z,12.74
2023-03-24T11:34:03.695Z,12.68
2023-03-24T11:36:30.728Z,12.48
2023-03-24T11:39:17.917Z,12.67
2023-03-24T11:42:03.430Z,12.80
2023-03-24T11:44:33.127Z,12.97
2023-03-24T11:47:05.027Z,13.08
2023-03-24T11:49:42.226Z,13.10
2023-03-24T11:52:18.387Z,13.06
2023-03-24T11:54:45.265Z,13.37
2023-03-24T11:57:13.945Z,13.42
2023-03-24T11:59:40.584Z,13.06
2023-03-24T12:02:28.869Z,13.10
2023-03-24T12:05:16.984Z,13.55
2023-03-24T12:07:49.807Z,13.03
2023-03-24T12:10:19.431Z,12.95
2023-03-24T12:12:58.481Z,12.87
2023-03-24T12:15:36.808Z,12.87
2023-03-24T12:18:42.436Z,13.08
2023-03-24T12:21:29.721Z,12.95
2023-03-24T12:23:58.241Z,13.21
2023-03-24T12:26:28.198Z,13.51
2023-03-24T12:28:58.323Z,13.34
2023-03-24T12:31:32.859Z,13.02
2023-03-24T12:34:08.083Z,13.29
2023-03-24T12:36:53.076Z,13.08
2023-03-24T12:39:29.360Z,12.82
2023-03-24T12:42:10.862Z,12.88
2023-03-24T12:44:43.631Z,12.84
2023-03-24T12:47:47.452Z,12.85
2023-03-24T12:50:49.691Z,13.17
2023-03-24T12:53:25.620Z,13.63
2023-03-24T12:55:58.459Z,14.09
2023-03-24T12:59:06.513Z,13.98
2023-03-24T13:01:35.799Z,13.97
2023-03-24T13:04:17.479Z,13.54
2023-03-24T13:06:58.642Z,13.24
2023-03-24T13:09:47.903Z,13.31
2023-03-24T13:12:21.365Z,12.77
2023-03-24T13:15:09.590Z,12.72
2023-03-24T13:17:42.801Z,12.92
2023-03-24T13:20:17.200Z,12.82
2023-03-24T13:22:44.368Z,12.90
2023-03-24T13:25:32.709Z,13.12
2023-03-24T13:28:04.426Z,13.30
2023-03-24T13:30:32.365Z,13.29
2023-03-24T13:33:17.499Z,13.45
2023-03-24T13:36:02.457Z,13.32
2023-03-24T13:38:29.102Z,13.23
2023-03-24T13:40:56.452Z,13.07
2023-03-24T13:43:25.463Z,13.19
2023-03-24T13:45:59.483Z,13.17
2023-03-24T13:48:33.550Z,13.13
2023-03-24T13:51:12.422Z,13.21
2023-03-24T13:54:01.165Z,13.27
2023-03-24T13:56:37.842Z,13.31
2023-03-24T13:59:10.383Z,12.78
2023-03-24T14:01:45.411Z,12.17
2023-03-24T14:04:44.963Z,11.80
2023-03-24T14:07:30.719Z,11.76
2023-03-24T14:10:00.176Z,11.56
2023-03-24T14:12:27.347Z,11.43
2023-03-24T14:15:19.290Z,11.32
2023-03-24T14:17:48.229Z,11.18
2023-03-24T14:20:32.657Z,11.25
2023-03-24T14:22:59.496Z,11.08
2023-03-24T14:25:30.992Z,11.29
2023-03-24T14:28:20.037Z,11.35
2023-03-24T14:31:18.362Z,11.47
2023-03-24T14:34:02.321Z,11.72
2023-03-24T14:36:31.447Z,11.73
2023-03-24T14:39:17.753Z,11.87
2023-03-24T14:41:45.495Z,12.15
2023-03-24T14:44:12.668Z,12.29
2023-03-24T14:46:47.560Z,12.30
2023-03-24T14:49:23.639Z,12.34
2023-03-24T14:52:11.542Z,12.45
2023-03-24T14:54:47.785Z,12.59
2023-03-24T14:57:39.373Z,12.62
2023-03-24T15:00:15.761Z,12.93
2023-03-24T15:02:47.313Z,13.06
2023-03-24T15:05:13.939Z,12.89
2023-03-24T15:07:41.922Z,12.71
2023-03-24T15:10:19.217Z,12.36
2023-03-24T15:12:47.905Z,12.40
2023-03-24T15:15:21.389Z,12.46
2023-03-24T15:17:51.424Z,12.19
2023-03-24T15:20:35.180Z,11.80
2023-03-24T15:23:07.604Z,11.60
2023-03-24T15:25:34.361Z,11.00
2023-03-24T15:28:12.927Z,10.92
2023-03-24T15:30:39.669Z,10.78
2023-03-24T15:33:06.585Z,10.54
2023-03-24T15:35:35.897Z,10.33
2023-03-24T15:38:04.059Z,10.05
2023-03-24T15:40:32.479Z,9.62
2023-03-24T15:43:08.009Z,9.15
2023-03-24T15:45:44.505Z,8.66
2023-03-24T15:48:17.273Z,8.54
2023-03-24T15:51:05.399Z,8.21
2023-03-24T15:53:43.995Z,8.18
2023-03-24T15:56:36.301Z,8.07
2023-03-24T15:59:06.009Z,8.09
2023-03-24T16:01:36.478Z,8.06
2023-03-24T16:04:08.350Z,8.03
2023-03-24T16:06:35.931Z,8.02
2023-03-24T16:09:09.499Z,7.96
2023-03-24T16:11:36.276Z,8.19
2023-03-24T16:14:17.413Z,8.49
2023-03-24T16:16:44.401Z,8.69
2023-03-24T16:19:11.141Z,8.66
2023-03-24T16:21:37.793Z,8.61
2023-03-24T16:24:04.750Z,8.52
2023-03-24T16:26:32.829Z,8.63
2023-03-24T16:29:20.601Z,8.32
2023-03-24T16:31:49.446Z,8.53
2023-03-24T16:34:25.593Z,8.41
2023-03-24T16:36:54.308Z,8.44
2023-03-24T16:39:23.839Z,8.25
2023-03-24T16:41:51.118Z,8.34
2023-03-24T16:44:21.143Z,8.25
2023-03-24T16:46:51.227Z,8.11
2023-03-24T16:49:22.884Z,8.05
2023-03-24T16:51:50.186Z,8.03
2023-03-24T16:54:17.052Z,7.84
2023-03-24T16:56:43.768Z,7.79
2023-03-24T16:59:12.540Z,7.83
2023-03-24T17:01:41.608Z,7.73
2023-03-24T17:04:13.219Z,7.85
2023-03-24T17:06:42.740Z,7.83
2023-03-24T17:09:10.101Z,7.86
2023-03-24T17:11:42.274Z,7.92
2023-03-24T17:14:12.395Z,8.00
2023-03-24T17:16:43.685Z,8.03
2023-03-24T17:19:15.452Z,7.86
2023-03-24T17:21:45.954Z,7.79
2023-03-24T17:24:13.665Z,7.68
2023-03-24T17:26:41.292Z,7.65
2023-03-24T17:29:11.399Z,7.76
2023-03-24T17:31:38.160Z,7.65
2023-03-24T17:34:15.116Z,7.62
2023-03-24T17:36:51.839Z,7.84
2023-03-24T17:39:19.768Z,7.79
2023-03-24T17:41:46.432Z,7.96
2023-03-24T17:44:13.249Z,8.12
2023-03-24T17:46:39.968Z,8.13
2023-03-24T17:49:06.920Z,8.13
2023-03-24T17:51:34.113Z,8.22
2023-03-24T17:54:04.204Z,8.09
2023-03-24T17:56:31.328Z,8.06
2023-03-24T17:58:59.557Z,7.92
2023-03-24T18:01:29.441Z,7.98
2023-03-24T18:03:57.669Z,7.88
2023-03-24T18:06:24.884Z,8.00
2023-03-24T18:08:52.179Z,7.78
2023-03-24T18:11:18.953Z,7.69
2023-03-24T18:13:45.727Z,7.80
2023-03-24T18:16:21.485Z,7.65
2023-03-24T18:18:50.323Z,7.63
2023-03-24T18:21:17.645Z,7.64
2023-03-24T18:23:46.680Z,7.66
2023-03-24T18:26:15.809Z,7.68
2023-03-24T18:28:42.943Z,7.59
2023-03-24T18:31:15.746Z,7.40
2023-03-24T18:33:46.011Z,7.34
2023-03-24T18:36:16.512Z,7.52
2023-03-24T18:38:44.096Z,7.50
2023-03-24T18:41:12.916Z,7.47
2023-03-24T18:43:44.957Z,7.53
2023-03-24T18:46:11.834Z,7.39
2023-03-24T18:48:40.174Z,7.30
2023-03-24T18:51:06.854Z,7.29
2023-03-24T18:53:36.980Z,7.29
2023-03-24T18:56:05.463Z,7.24
2023-03-24T18:58:32.322Z,7.19
2023-03-24T19:01:01.137Z,7.22
2023-03-24T19:03:28.909Z,7.24
2023-03-24T19:06:00.776Z,7.14
2023-03-24T19:08:27.663Z,7.05
2023-03-24T19:10:54.979Z,6.99
2023-03-24T19:13:21.623Z,6.97
2023-03-24T19:15:49.129Z,7.03
2023-03-24T19:18:16.192Z,7.27
2023-03-24T19:20:43.003Z,7.32
2023-03-24T19:23:09.736Z,7.20
2023-03-24T19:25:36.466Z,7.15
2023-03-24T19:28:03.288Z,7.21
2023-03-24T19:30:29.968Z,7.17
2023-03-24T19:32:56.939Z,7.22
2023-03-24T19:35:24.331Z,7.10
2023-03-24T19:37:51.069Z,7.09
2023-03-24T19:40:17.946Z,7.03
2023-03-24T19:42:45.110Z,6.82
2023-03-24T19:45:16.293Z,6.90
2023-03-24T19:47:46.233Z,6.93
2023-03-24T19:50:14.820Z,6.91
2023-03-24T19:52:46.049Z,7.31
2023-03-24T19:55:12.894Z,7.23
2023-03-24T19:57:39.814Z,7.02
2023-03-24T20:00:10.243Z,7.07
2023-03-24T20:02:38.242Z,7.18
2023-03-24T20:05:06.936Z,7.18
2023-03-24T20:07:34.871Z,7.10
2023-03-24T20:10:01.551Z,7.25
2023-03-24T20:12:28.359Z,7.12
2023-03-24T20:14:55.073Z,7.10
2023-03-24T20:17:23.058Z,7.08
2023-03-24T20:19:50.741Z,6.98
2023-03-24T20:22:17.667Z,6.99
2023-03-24T20:24:44.612Z,7.06
2023-03-24T20:27:11.756Z,7.09
2023-03-24T20:29:39.924Z,6.94
2023-03-24T20:32:10.075Z,6.97
2023-03-24T20:34:38.235Z,7.17
2023-03-24T20:37:05.725Z,7.22
2023-03-24T20:39:33.490Z,7.18
2023-03-24T20:42:00.933Z,6.96
2023-03-24T20:44:28.054Z,7.07
2023-03-24T20:46:57.193Z,6.89
2023-03-24T20:49:24.425Z,6.97
2023-03-24T20:51:51.594Z,7.10
2023-03-24T20:54:18.316Z,6.99
2023-03-24T20:56:45.980Z,6.99
2023-03-24T20:59:13.797Z,7.04
2023-03-24T21:01:41.988Z,6.91
2023-03-24T21:04:10.084Z,6.87
2023-03-24T21:06:40.648Z,6.95
2023-03-24T21:09:07.306Z,6.62
2023-03-24T21:11:36.883Z,6.38
2023-03-24T21:14:03.800Z,6.29
2023-03-24T21:16:35.804Z,6.51
2023-03-24T21:19:03.764Z,6.60
2023-03-24T21:21:32.157Z,6.73
2023-03-24T21:23:59.302Z,6.95
2023-03-24T21:26:26.018Z,6.81
2023-03-24T21:28:53.070Z,6.74
2023-03-24T21:31:21.625Z,6.62
2023-03-24T21:33:49.213Z,6.26
2023-03-24T21:36:16.746Z,6.15
2023-03-24T21:38:43.453Z,5.96
2023-03-24T21:41:11.543Z,5.87
2023-03-24T21:43:40.387Z,5.84
2023-03-24T21:46:14.763Z,5.76
2023-03-24T21:48:51.466Z,5.79
2023-03-24T21:51:19.793Z,5.89
2023-03-24T21:53:47.683Z,6.13
2023-03-24T21:56:14.742Z,6.12
2023-03-24T21:58:41.629Z,6.11
2023-03-24T22:01:09.048Z,6.26
2023-03-24T22:03:37.449Z,6.51
2023-03-24T22:06:05.623Z,6.78
2023-03-24T22:08:32.524Z,6.85
2023-03-24T22:11:01.063Z,6.94
2023-03-24T22:13:28.763Z,6.82
2023-03-24T22:15:57.298Z,6.73
2023-03-24T22:18:25.591Z,6.96
2023-03-24T22:20:55.337Z,7.09
2023-03-24T22:23:22.949Z,6.98
2023-03-24T22:25:52.631Z,7.11
2023-03-24T22:28:20.093Z,7.14
2023-03-24T22:30:46.940Z,6.90
2023-03-24T22:33:13.795Z,6.96
2023-03-24T22:35:40.866Z,7.12
2023-03-24T22:38:07.858Z,6.98
2023-03-24T22:40:35.377Z,6.79
2023-03-24T22:43:02.016Z,6.56
2023-03-24T22:45:28.661Z,6.79
2023-03-24T22:47:55.524Z,7.07
2023-03-24T22:50:22.481Z,7.07
2023-03-24T22:52:49.124Z,6.97
2023-03-24T22:55:15.998Z,7.05
2023-03-24T22:57:44.645Z,7.20
2023-03-24T23:00:14.697Z,7.13
2023-03-24T23:02:41.558Z,7.10
2023-03-24T23:05:08.558Z,7.05
2023-03-24T23:07:35.359Z,7.07
2023-03-24T23:10:02.137Z,7.11
2023-03-24T23:12:29.098Z,6.87
2023-03-24T23:14:56.004Z,6.79
2023-03-24T23:17:25.843Z,6.84
2023-03-24T23:19:53.493Z,7.04
2023-03-24T23:22:21.358Z,7.23
2023-03-24T23:24:48.873Z,7.21
2023-03-24T23:27:16.290Z,7.09
2023-03-24T23:29:42.885Z,7.12
2023-03-24T23:32:09.570Z,7.15
2023-03-24T23:34:38.168Z,7.22
2023-03-24T23:37:04.998Z,7.22
2023-03-24T23:39:36.792Z,7.09
2023-03-24T23:42:05.897Z,6.96
2023-03-24T23:44:32.859Z,6.96
2023-03-24T23:46:59.487Z,7.07
2023-03-24T23:49:26.288Z,7.06
2023-03-24T23:51:52.925Z,7.00
2023-03-24T23:54:19.593Z,7.04
2023-03-24T23:56:47.249Z,6.87
2023-03-24T23:59:14.376Z,6.95
